Corowa, Victoria

10:23 PM AEST on October 01, 2016 (GMT +1000)
Rutherglen | | Change Station

Elev 582 ft 36.06 °S, 146.47 °E | Updated 15 seconds ago

Overcast
Overcast
51.1 °F
Feels Like 51.1 °F
N
0.0
Wind Variable Wind from ENE
Gusts 0.0 mph

Today
High -- | Low -- °F
--% Chance of Precip.
Yesterday
High -- | Low -- °F
Precip. -- in
Pressure 29.86 in
Visibility 6.2 miles
Clouds Scattered Clouds 4600 ft
Overcast 5400 ft
Dew Point 48 °F
Humidity 88%
Rainfall 0.18 in
Snow Depth Not available.
5:50 AM 6:18 PM
New Moon, 0% visible
METAR YWGT 011200Z AUTO 00000KT 9999 // SCT046 OVC054 12/09 Q1011
Pressure 29.86 in
Visibility 6.2 miles
Clouds Scattered Clouds 4600 ft
Overcast 5400 ft
Dew Point 48 °F
Humidity 88%
Rainfall 0.18 in
Snow Depth Not available.
5:50 AM 6:18 PM
New Moon, 0% visible
METAR YWGT 011200Z AUTO 00000KT 9999 // SCT046 OVC054 12/09 Q1011

10-Day Weather Forecast

Almanac

Astronomy

Oct. 01, 2016 Rise Set
Actual Time
Civil Twilight
Nautical Twilight
Astronomical Twilight
Moon
Length of Visible Light
Length of Day
Tomorrow will be .
, % of the Moon is Illuminated

Today's Extremes

Country Highs Country Lows

Community

WunderPhotos

Upload Photos

1,942,920 photos uploaded!

WunderBlog® & News

Nearby

Air Quality

  Air Quality AQ Index Pollutant
Not available.

Snow Depth

Station Depth Elevation

Earthquake Activity

City Distance Mag. Time & Date
Minimum magnitude displayed is 2.5.

Coastal Water Temperatures

Place Temperature

Stations

Nearby Weather Stations

Station Location Temp. Windchill Dew Point Humidity Wind Precip. Elev Updated Type